createdAt,value
2019-02-07T00:00:58.460Z,100812.66
2019-02-07T00:03:48.838Z,100820.16
2019-02-07T00:06:38.855Z,100810.83
2019-02-07T00:09:28.778Z,100822.33
2019-02-07T00:12:18.635Z,100810.17
2019-02-07T00:15:09.220Z,100812.17
2019-02-07T00:17:58.863Z,100807.19
2019-02-07T00:20:49.745Z,100798.01
2019-02-07T00:23:40.011Z,100796.49
2019-02-07T00:26:30.157Z,100792.84
2019-02-07T00:29:20.577Z,100782.48
2019-02-07T00:32:10.486Z,100790.00
2019-02-07T00:35:00.353Z,100788.31
2019-02-07T00:37:50.379Z,100785.31
2019-02-07T00:40:40.414Z,100786.66
2019-02-07T00:43:30.347Z,100779.32
2019-02-07T00:46:20.074Z,100775.81
2019-02-07T00:49:09.938Z,100766.16
2019-02-07T00:52:00.246Z,100764.14
2019-02-07T00:54:50.193Z,100759.64
2019-02-07T00:57:40.078Z,100759.45
2019-02-07T01:00:30.196Z,100756.63
2019-02-07T01:03:19.868Z,100744.09
2019-02-07T01:06:09.724Z,100738.77
2019-02-07T01:09:00.023Z,100737.93
2019-02-07T01:11:52.142Z,100722.75
2019-02-07T01:14:42.532Z,100717.23
2019-02-07T01:17:32.266Z,100720.41
2019-02-07T01:20:22.521Z,100732.42
2019-02-07T01:23:12.673Z,100722.23
2019-02-07T01:26:02.734Z,100712.23
2019-02-07T01:28:52.446Z,100704.05
2019-02-07T01:31:42.185Z,100704.89
2019-02-07T01:34:32.147Z,100702.90
2019-02-07T01:37:23.380Z,100691.20
2019-02-07T01:40:17.132Z,100682.87
2019-02-07T01:43:06.691Z,100672.04
2019-02-07T01:45:57.110Z,100682.19
2019-02-07T01:48:46.983Z,100681.37
2019-02-07T01:51:37.258Z,100682.53
2019-02-07T01:54:27.271Z,100671.34
2019-02-07T01:57:17.274Z,100666.00
2019-02-07T02:00:11.506Z,100654.85
2019-02-07T02:03:02.301Z,100651.00
2019-02-07T02:05:53.175Z,100646.00
2019-02-07T02:08:42.809Z,100643.34
2019-02-07T02:11:34.276Z,100636.83
2019-02-07T02:14:24.425Z,100637.30
2019-02-07T02:17:14.498Z,100629.94
2019-02-07T02:20:04.953Z,100628.97
2019-02-07T02:22:56.124Z,100625.10
2019-02-07T02:25:46.246Z,100617.59
2019-02-07T02:28:37.400Z,100613.59
2019-02-07T02:31:27.432Z,100605.91
2019-02-07T02:34:17.422Z,100599.24
2019-02-07T02:37:07.399Z,100609.24
2019-02-07T02:39:57.453Z,100605.55
2019-02-07T02:42:47.569Z,100597.85
2019-02-07T02:45:38.035Z,100589.87
2019-02-07T02:48:28.952Z,100591.05
2019-02-07T02:51:19.076Z,100577.70
2019-02-07T02:54:29.264Z,100576.34
2019-02-07T02:57:19.417Z,100566.50
2019-02-07T03:00:18.236Z,100567.21
2019-02-07T03:03:19.187Z,100559.48
2019-02-07T03:06:19.675Z,100555.66
2019-02-07T03:09:22.028Z,100555.29
2019-02-07T03:12:23.451Z,100555.47
2019-02-07T03:15:34.477Z,100556.13
2019-02-07T03:18:38.792Z,100555.22
2019-02-07T03:21:35.222Z,100551.86
2019-02-07T03:24:47.085Z,100553.34
2019-02-07T03:27:55.667Z,100542.63
2019-02-07T03:31:19.009Z,100545.61
2019-02-07T03:34:20.963Z,100536.41
2019-02-07T03:37:32.626Z,100536.95
2019-02-07T03:40:40.329Z,100530.57
2019-02-07T03:43:55.526Z,100527.52
2019-02-07T03:47:02.667Z,100526.52
2019-02-07T03:50:08.673Z,100525.23
2019-02-07T03:53:19.978Z,100514.55
2019-02-07T03:56:27.940Z,100516.42
2019-02-07T03:59:35.270Z,100506.96
2019-02-07T04:03:02.677Z,100500.28
2019-02-07T04:06:11.560Z,100496.77
2019-02-07T04:09:10.713Z,100493.27
2019-02-07T04:12:14.659Z,100489.60
2019-02-07T04:15:23.846Z,100485.89
2019-02-07T04:18:35.813Z,100481.70
2019-02-07T04:21:40.430Z,100481.55
2019-02-07T04:25:04.784Z,100471.89
2019-02-07T04:28:06.830Z,100477.19
2019-02-07T04:31:22.364Z,100460.87
2019-02-07T04:34:27.326Z,100464.98
2019-02-07T04:37:40.531Z,100461.47
2019-02-07T04:40:49.407Z,100448.21
2019-02-07T04:44:02.988Z,100450.05
2019-02-07T04:47:11.705Z,100446.73
2019-02-07T04:50:19.479Z,100450.55
2019-02-07T04:53:27.308Z,100440.34
2019-02-07T04:56:34.112Z,100443.32
2019-02-07T04:59:47.641Z,100432.39
2019-02-07T05:03:01.797Z,100430.41
2019-02-07T05:06:00.901Z,100429.42
2019-02-07T05:08:58.441Z,100413.68
2019-02-07T05:12:06.191Z,100417.49
2019-02-07T05:15:07.288Z,100412.50
2019-02-07T05:18:25.389Z,100413.34
2019-02-07T05:21:34.721Z,100406.70
2019-02-07T05:24:41.455Z,100397.52
2019-02-07T05:27:49.470Z,100402.35
2019-02-07T05:30:45.580Z,100398.50
2019-02-07T05:33:50.944Z,100389.00
2019-02-07T05:37:07.652Z,100391.48
2019-02-07T05:40:15.035Z,100384.80
2019-02-07T05:43:31.743Z,100389.26
2019-02-07T05:46:52.875Z,100379.31
2019-02-07T05:49:57.806Z,100377.92
2019-02-07T05:53:05.551Z,100368.87
2019-02-07T05:56:10.722Z,100376.43
2019-02-07T05:59:07.786Z,100377.58
2019-02-07T06:02:09.860Z,100373.91
2019-02-07T06:05:13.413Z,100368.04
2019-02-07T06:08:31.265Z,100363.19
2019-02-07T06:11:32.038Z,100363.00
2019-02-07T06:14:39.758Z,100358.69
2019-02-07T06:17:47.070Z,100354.39
2019-02-07T06:20:58.701Z,100352.80
2019-02-07T06:24:07.312Z,100356.66
2019-02-07T06:27:16.141Z,100344.64
2019-02-07T06:30:27.250Z,100346.17
2019-02-07T06:33:36.009Z,100343.94
2019-02-07T06:36:37.438Z,100339.75
2019-02-07T06:39:44.701Z,100333.88
2019-02-07T06:42:42.168Z,100330.48
2019-02-07T06:45:38.655Z,100321.26
2019-02-07T06:48:37.700Z,100319.93
2019-02-07T06:51:35.156Z,100324.98
2019-02-07T06:54:45.233Z,100332.39
2019-02-07T06:57:53.984Z,100321.48
2019-02-07T07:00:57.327Z,100321.87
2019-02-07T07:04:07.762Z,100317.16
2019-02-07T07:07:13.150Z,100305.09
2019-02-07T07:10:21.763Z,100292.39
2019-02-07T07:13:38.005Z,100281.30
2019-02-07T07:16:40.326Z,100274.67
2019-02-07T07:19:48.325Z,100281.19
2019-02-07T07:22:56.345Z,100279.13
2019-02-07T07:26:03.937Z,100276.19
2019-02-07T07:29:19.427Z,100277.16
2019-02-07T07:32:22.827Z,100286.23
2019-02-07T07:35:39.952Z,100272.45
2019-02-07T07:38:54.012Z,100279.64
2019-02-07T07:42:11.224Z,100276.23
2019-02-07T07:45:19.078Z,100273.83
2019-02-07T07:48:27.352Z,100266.92
2019-02-07T07:51:35.162Z,100263.63
2019-02-07T07:54:44.188Z,100259.84
2019-02-07T07:57:55.943Z,100245.50
2019-02-07T08:01:03.708Z,100241.75
2019-02-07T08:04:15.473Z,100237.23
2019-02-07T08:07:19.579Z,100238.57
2019-02-07T08:10:39.983Z,100240.61
2019-02-07T08:14:03.747Z,100236.08
2019-02-07T08:17:24.907Z,100227.15
2019-02-07T08:20:33.838Z,100237.41
2019-02-07T08:23:34.979Z,100227.78
2019-02-07T08:26:43.445Z,100220.42
2019-02-07T08:30:07.248Z,100214.66
2019-02-07T08:33:11.917Z,100213.87
2019-02-07T08:36:21.204Z,100210.53
2019-02-07T08:39:30.412Z,100192.76
2019-02-07T08:42:39.419Z,100183.80
2019-02-07T08:45:43.265Z,100181.86
2019-02-07T08:48:48.933Z,100172.44
2019-02-07T08:52:08.801Z,100174.28
2019-02-07T08:55:11.900Z,100172.17
2019-02-07T08:58:20.517Z,100165.30
2019-02-07T09:01:21.044Z,100167.62
2019-02-07T09:04:39.414Z,100150.62
2019-02-07T09:08:03.671Z,100149.84
2019-02-07T09:11:11.632Z,100150.47
2019-02-07T09:14:23.491Z,100137.05
2019-02-07T09:17:24.526Z,100140.56
2019-02-07T09:20:24.514Z,100135.42
2019-02-07T09:23:39.334Z,100139.91
2019-02-07T09:26:47.183Z,100134.90
2019-02-07T09:29:54.833Z,100138.72
2019-02-07T09:32:58.727Z,100140.28
2019-02-07T09:36:10.221Z,100152.23
2019-02-07T09:39:17.525Z,100151.84
2019-02-07T09:42:25.494Z,100154.25
2019-02-07T09:45:44.096Z,100145.05
2019-02-07T09:48:55.871Z,100145.98
2019-02-07T09:51:54.235Z,100149.69
2019-02-07T09:55:03.466Z,100154.92
2019-02-07T09:58:07.659Z,100149.16
2019-02-07T10:01:15.502Z,100151.02
2019-02-07T10:04:23.388Z,100151.97
2019-02-07T10:07:21.690Z,100160.34
2019-02-07T10:10:40.720Z,100159.00
2019-02-07T10:14:07.709Z,100158.17
2019-02-07T10:17:14.779Z,100169.95
2019-02-07T10:20:23.675Z,100158.06
2019-02-07T10:23:26.494Z,100168.90
2019-02-07T10:26:30.822Z,100164.27
2019-02-07T10:29:40.160Z,100159.12
2019-02-07T10:32:44.675Z,100134.47
2019-02-07T10:35:52.070Z,100148.39
2019-02-07T10:38:56.700Z,100132.58
2019-02-07T10:41:57.757Z,100124.53
2019-02-07T10:45:04.951Z,100125.91
2019-02-07T10:48:19.530Z,100113.19
2019-02-07T10:51:28.723Z,100121.38
2019-02-07T10:54:36.245Z,100135.91
2019-02-07T10:57:43.935Z,100128.47
2019-02-07T11:01:11.221Z,100127.55
2019-02-07T11:04:21.333Z,100116.59
2019-02-07T11:07:26.437Z,100105.14
2019-02-07T11:10:50.512Z,100116.18
2019-02-07T11:14:10.986Z,100105.16
2019-02-07T11:17:18.158Z,100088.43
2019-02-07T11:20:33.324Z,100084.12
2019-02-07T11:23:58.610Z,100084.63
2019-02-07T11:27:07.370Z,100085.03
2019-02-07T11:30:09.229Z,100079.16
2019-02-07T11:33:27.282Z,100074.52
2019-02-07T11:36:36.012Z,100065.03
2019-02-07T11:39:44.860Z,100053.77
2019-02-07T11:42:54.319Z,100062.75
2019-02-07T11:45:58.275Z,100047.68
2019-02-07T11:49:06.604Z,100043.77
2019-02-07T11:52:09.064Z,100041.21
2019-02-07T11:55:13.912Z,100040.97
2019-02-07T11:58:13.911Z,100030.73
2019-02-07T12:01:21.706Z,100032.95
2019-02-07T12:04:33.296Z,100035.80
2019-02-07T12:07:37.732Z,100028.00
2019-02-07T12:10:37.147Z,100027.64
2019-02-07T12:13:51.727Z,100023.58
2019-02-07T12:17:10.907Z,100018.94
2019-02-07T12:20:23.682Z,100003.86
2019-02-07T12:23:27.803Z,100006.59
2019-02-07T12:26:46.045Z,100004.45
2019-02-07T12:29:53.388Z,100002.59
2019-02-07T12:33:04.649Z,100003.84
2019-02-07T12:36:02.192Z,99996.80
2019-02-07T12:38:58.300Z,99994.94
2019-02-07T12:41:58.532Z,99991.98
2019-02-07T12:45:17.387Z,100009.75
2019-02-07T12:48:25.311Z,99995.84
2019-02-07T12:51:40.940Z,100002.19
2019-02-07T12:54:54.583Z,100001.06
2019-02-07T12:58:01.835Z,100002.63
2019-02-07T13:01:17.504Z,99995.95
2019-02-07T13:04:26.212Z,100011.09
2019-02-07T13:07:47.950Z,100020.04
2019-02-07T13:10:56.495Z,100022.16
2019-02-07T13:14:01.116Z,100010.30
2019-02-07T13:17:08.569Z,100011.18
2019-02-07T13:20:12.097Z,100005.17
2019-02-07T13:23:24.414Z,100006.71
2019-02-07T13:26:23.821Z,100001.72
2019-02-07T13:29:35.814Z,100011.45
2019-02-07T13:32:37.783Z,100020.57
2019-02-07T13:35:53.055Z,100019.17
2019-02-07T13:39:00.129Z,100014.03
2019-02-07T13:42:07.497Z,100031.27
2019-02-07T13:45:25.427Z,100033.11
2019-02-07T13:48:33.370Z,100021.95
2019-02-07T13:51:42.181Z,100016.39
2019-02-07T13:54:53.698Z,100023.70
2019-02-07T13:57:53.300Z,100031.64
2019-02-07T14:01:00.885Z,100026.19
2019-02-07T14:04:18.727Z,100019.42
2019-02-07T14:07:27.423Z,100020.67
2019-02-07T14:10:32.997Z,100018.82
2019-02-07T14:13:41.215Z,100019.45
2019-02-07T14:16:54.236Z,100026.55
2019-02-07T14:20:06.404Z,100018.84
2019-02-07T14:23:05.051Z,100025.55
2019-02-07T14:26:12.771Z,100018.46
2019-02-07T14:29:16.701Z,100027.02
2019-02-07T14:32:25.470Z,100029.92
2019-02-07T14:35:28.185Z,100038.30
2019-02-07T14:38:46.551Z,100033.27
2019-02-07T14:42:04.640Z,100037.28
2019-02-07T14:45:19.185Z,100031.30
2019-02-07T14:48:11.114Z,100025.41
2019-02-07T14:51:01.162Z,100026.55
2019-02-07T14:53:51.224Z,100028.41
2019-02-07T14:56:42.064Z,100035.11
2019-02-07T14:59:31.652Z,100030.17
2019-02-07T15:02:21.133Z,100017.98
2019-02-07T15:05:12.190Z,100022.73
2019-02-07T15:08:01.862Z,100016.86
2019-02-07T15:10:51.707Z,100021.48
2019-02-07T15:13:41.614Z,100019.85
2019-02-07T15:16:31.631Z,100021.08
2019-02-07T15:19:21.823Z,100024.98
2019-02-07T15:22:13.123Z,100025.09
2019-02-07T15:25:02.880Z,100024.87
2019-02-07T15:27:53.568Z,100028.70
2019-02-07T15:30:43.404Z,100028.80
2019-02-07T15:33:33.337Z,100030.86
2019-02-07T15:36:23.220Z,100032.83
2019-02-07T15:39:16.058Z,100043.14
2019-02-07T15:42:06.203Z,100047.69
2019-02-07T15:44:57.686Z,100037.58
2019-02-07T15:47:48.101Z,100025.30
2019-02-07T15:50:38.548Z,100035.23
2019-02-07T15:53:29.881Z,100022.94
2019-02-07T15:56:20.071Z,100022.43
2019-02-07T15:59:24.387Z,100029.64
2019-02-07T16:02:22.006Z,100023.95
2019-02-07T16:05:12.783Z,100031.39
2019-02-07T16:08:02.523Z,100024.38
2019-02-07T16:10:52.524Z,100034.91
2019-02-07T16:13:42.501Z,100036.66
2019-02-07T16:16:31.918Z,100051.19
2019-02-07T16:19:21.653Z,100051.41
2019-02-07T16:22:12.033Z,100061.52
2019-02-07T16:25:02.501Z,100059.34
2019-02-07T16:27:52.554Z,100057.38
2019-02-07T16:30:43.466Z,100057.20
2019-02-07T16:33:33.624Z,100058.53
2019-02-07T16:36:23.489Z,100071.63
2019-02-07T16:39:14.778Z,100068.65
2019-02-07T16:42:06.543Z,100064.30
2019-02-07T16:44:56.638Z,100061.94
2019-02-07T16:47:46.673Z,100069.98
2019-02-07T16:50:37.275Z,100062.02
2019-02-07T16:53:27.500Z,100055.94
2019-02-07T16:56:17.086Z,100057.60
2019-02-07T16:59:07.298Z,100063.87
2019-02-07T17:01:57.050Z,100062.02
2019-02-07T17:04:46.782Z,100060.69
2019-02-07T17:07:36.578Z,100053.37
2019-02-07T17:10:30.444Z,100072.45
2019-02-07T17:13:19.791Z,100069.78
2019-02-07T17:16:09.951Z,100076.38
2019-02-07T17:18:59.937Z,100081.23
2019-02-07T17:21:50.263Z,100086.38
2019-02-07T17:24:40.364Z,100083.37
2019-02-07T17:27:30.524Z,100086.38
2019-02-07T17:30:21.286Z,100078.44
2019-02-07T17:33:12.065Z,100081.44
2019-02-07T17:36:01.922Z,100092.46
2019-02-07T17:38:52.402Z,100093.62
2019-02-07T17:41:42.314Z,100100.40
2019-02-07T17:44:32.690Z,100095.97
2019-02-07T17:47:22.839Z,100096.70
2019-02-07T17:50:18.269Z,100101.55
2019-02-07T17:53:08.421Z,100116.09
2019-02-07T17:55:57.872Z,100112.06
2019-02-07T17:58:47.563Z,100114.75
2019-02-07T18:01:38.045Z,100113.22
2019-02-07T18:04:27.729Z,100104.23
2019-02-07T18:07:17.737Z,100103.30
2019-02-07T18:10:09.512Z,100110.52
2019-02-07T18:12:58.685Z,100112.80
2019-02-07T18:15:48.746Z,100121.23
2019-02-07T18:18:38.849Z,100113.91
2019-02-07T18:21:34.249Z,100116.81
2019-02-07T18:24:21.056Z,100126.42
2019-02-07T18:27:11.297Z,100131.36
2019-02-07T18:30:01.388Z,100152.81
2019-02-07T18:32:51.987Z,100154.27
2019-02-07T18:35:41.982Z,100158.61
2019-02-07T18:38:32.132Z,100169.74
2019-02-07T18:41:22.188Z,100168.62
2019-02-07T18:44:12.349Z,100170.25
2019-02-07T18:47:01.784Z,100162.92
2019-02-07T18:49:51.492Z,100163.55
2019-02-07T18:52:41.848Z,100176.77
2019-02-07T18:55:32.187Z,100185.43
2019-02-07T18:58:22.517Z,100187.27
2019-02-07T19:01:12.528Z,100179.91
2019-02-07T19:04:02.491Z,100185.81
2019-02-07T19:06:52.820Z,100183.81
2019-02-07T19:09:42.657Z,100189.39
2019-02-07T19:12:32.753Z,100192.67
2019-02-07T19:15:25.006Z,100199.27
2019-02-07T19:18:14.622Z,100195.45
2019-02-07T19:21:04.518Z,100199.16
2019-02-07T19:23:54.989Z,100213.51
2019-02-07T19:26:44.623Z,100211.23
2019-02-07T19:29:34.983Z,100202.17
2019-02-07T19:32:25.540Z,100195.80
2019-02-07T19:35:15.794Z,100198.04
2019-02-07T19:38:07.914Z,100194.41
2019-02-07T19:40:58.297Z,100199.87
2019-02-07T19:43:48.185Z,100203.38
2019-02-07T19:46:38.722Z,100208.52
2019-02-07T19:49:29.259Z,100204.89
2019-02-07T19:52:19.316Z,100215.08
2019-02-07T19:55:13.679Z,100208.03
2019-02-07T19:58:03.860Z,100219.67
2019-02-07T20:00:54.329Z,100218.96
2019-02-07T20:03:44.827Z,100220.19
2019-02-07T20:06:34.620Z,100217.27
2019-02-07T20:09:24.421Z,100211.28
2019-02-07T20:12:14.537Z,100215.81
2019-02-07T20:15:08.677Z,100226.95
2019-02-07T20:20:50.920Z,100226.53
2019-02-07T20:23:41.184Z,100226.44
2019-02-07T20:26:31.113Z,100223.22
2019-02-07T20:29:21.093Z,100226.35
2019-02-07T20:32:11.128Z,100233.05
2019-02-07T20:35:01.230Z,100237.66
2019-02-07T20:37:52.043Z,100244.24
2019-02-07T20:40:42.550Z,100239.09
2019-02-07T20:43:33.583Z,100247.19
2019-02-07T20:46:22.702Z,100252.66
2019-02-07T20:49:12.576Z,100256.89
2019-02-07T20:52:02.452Z,100251.83
2019-02-07T20:54:52.839Z,100248.73
2019-02-07T20:57:43.332Z,100259.00
2019-02-07T21:00:35.777Z,100265.02
2019-02-07T21:03:25.778Z,100265.60
2019-02-07T21:06:15.819Z,100270.09
2019-02-07T21:09:09.422Z,100277.33
2019-02-07T21:12:00.310Z,100272.17
2019-02-07T21:14:49.922Z,100267.75
2019-02-07T21:17:39.803Z,100276.20
2019-02-07T21:20:30.117Z,100276.78
2019-02-07T21:23:19.852Z,100281.06
2019-02-07T21:26:10.090Z,100281.14
2019-02-07T21:29:00.149Z,100284.77
2019-02-07T21:31:50.327Z,100294.78
2019-02-07T21:34:40.906Z,100294.02
2019-02-07T21:37:30.602Z,100296.17
2019-02-07T21:40:27.482Z,100298.22
2019-02-07T21:43:19.006Z,100304.73
2019-02-07T21:46:09.139Z,100305.41
2019-02-07T21:48:59.579Z,100303.90
2019-02-07T21:51:49.448Z,100314.91
2019-02-07T21:54:41.222Z,100319.26
2019-02-07T21:57:31.815Z,100319.59
2019-02-07T22:00:34.459Z,100319.47
2019-02-07T22:03:24.336Z,100319.89
2019-02-07T22:06:14.257Z,100315.95
2019-02-07T22:09:05.947Z,100311.30
2019-02-07T22:11:56.852Z,100317.21
2019-02-07T22:14:46.272Z,100320.47
2019-02-07T22:17:36.492Z,100322.27
2019-02-07T22:20:27.498Z,100329.77
2019-02-07T22:23:17.331Z,100328.63
2019-02-07T22:26:07.438Z,100330.61
2019-02-07T22:28:57.338Z,100337.30
2019-02-07T22:31:47.458Z,100334.32
2019-02-07T22:34:39.434Z,100339.34
2019-02-07T22:37:29.181Z,100333.86
2019-02-07T22:40:22.067Z,100334.50
2019-02-07T22:43:12.178Z,100337.09
2019-02-07T22:46:02.324Z,100345.66
2019-02-07T22:48:52.555Z,100340.94
2019-02-07T22:51:42.949Z,100352.58
2019-02-07T22:54:32.883Z,100350.87
2019-02-07T22:57:22.921Z,100342.63
2019-02-07T23:01:28.286Z,100352.53
2019-02-07T23:04:19.315Z,100345.13
2019-02-07T23:07:09.221Z,100356.02
2019-02-07T23:09:59.553Z,100351.03
2019-02-07T23:12:49.686Z,100353.97
2019-02-07T23:15:40.443Z,100354.92
2019-02-07T23:18:30.274Z,100352.25
2019-02-07T23:21:19.321Z,100358.73
2019-02-07T23:24:09.350Z,100351.70
2019-02-07T23:27:00.748Z,100361.20
2019-02-07T23:29:50.337Z,100372.17
2019-02-07T23:32:40.030Z,100366.27
2019-02-07T23:35:29.885Z,100371.80
2019-02-07T23:38:19.733Z,100377.91
2019-02-07T23:41:11.061Z,100373.77
2019-02-07T23:44:01.220Z,100373.71
2019-02-07T23:46:51.005Z,100375.59
2019-02-07T23:49:41.183Z,100376.64
2019-02-07T23:52:32.991Z,100384.02
2019-02-07T23:55:23.064Z,100386.20
2019-02-07T23:58:15.901Z,100385.45
